Time;durP1;ratioP1;P1;durP2;ratioP2;P2;SDS_P1;SDS_P2;PMS_P1;PMS_P2;Temp;Humidity;BMP_temperature;BMP_pressure;BME280_temperature;BME280_humidity;BME280_pressure;Samples;Min_cycle;Max_cycle;Signal;HPM_P1;HPM_P2
2023/12/04 00:00:45;;;;;;;19.92;11.48;;;1.50;99.90;;;;;;5053821;28;20501;-74
2023/12/04 00:03:11;;;;;;;22.00;10.68;;;1.50;99.90;;;;;;5036858;28;20051;-74
2023/12/04 00:05:36;;;;;;;20.17;10.38;;;1.50;99.90;;;;;;5037048;28;20048;-74
2023/12/04 00:08:02;;;;;;;11.18;5.95;;;1.50;99.90;;;;;;5036936;28;20080;-74
2023/12/04 00:10:28;;;;;;;21.58;14.02;;;1.60;99.90;;;;;;5035560;28;20041;-74
2023/12/04 00:12:53;;;;;;;18.33;10.45;;;1.60;99.90;;;;;;5051202;28;20037;-74
2023/12/04 00:15:20;;;;;;;24.63;14.82;;;1.60;99.90;;;;;;5017114;28;20128;-74
2023/12/04 00:17:45;;;;;;;20.30;11.38;;;1.50;99.90;;;;;;5033371;28;20048;-74
2023/12/04 00:20:11;;;;;;;22.27;10.32;;;1.50;99.90;;;;;;5031829;28;20056;-74
2023/12/04 00:22:37;;;;;;;21.25;11.55;;;1.50;99.90;;;;;;5049966;28;20041;-74
2023/12/04 00:25:04;;;;;;;23.52;14.55;;;1.50;99.90;;;;;;5052115;28;20055;-74
2023/12/04 00:27:30;;;;;;;23.08;12.13;;;1.40;99.90;;;;;;5036436;28;20063;-74
2023/12/04 00:29:56;;;;;;;19.73;10.00;;;1.40;99.90;;;;;;5040362;28;20042;-74
2023/12/04 00:32:22;;;;;;;21.15;11.63;;;1.50;99.90;;;;;;5040228;28;20413;-74
2023/12/04 00:34:47;;;;;;;24.00;12.93;;;1.50;99.90;;;;;;5036258;28;20033;-74
2023/12/04 00:37:13;;;;;;;18.45;9.60;;;1.40;99.90;;;;;;5039800;28;20479;-74
2023/12/04 00:39:39;;;;;;;21.50;12.25;;;1.50;99.90;;;;;;5060275;28;20029;-74
2023/12/04 00:42:05;;;;;;;18.38;10.07;;;1.40;99.90;;;;;;5051809;28;20127;-74
2023/12/04 00:44:31;;;;;;;21.75;13.45;;;1.40;99.90;;;;;;5035205;28;20069;-74
2023/12/04 00:46:57;;;;;;;24.20;11.77;;;1.40;99.90;;;;;;5052974;28;20091;-75
2023/12/04 00:49:23;;;;;;;17.40;8.98;;;1.40;99.90;;;;;;5035333;28;20048;-74
2023/12/04 00:51:49;;;;;;;20.92;10.05;;;1.30;99.90;;;;;;5034928;28;20037;-75
2023/12/04 00:54:14;;;;;;;15.07;8.63;;;1.40;99.90;;;;;;5035941;28;20085;-75
2023/12/04 00:56:41;;;;;;;16.13;9.40;;;1.40;99.90;;;;;;5036004;28;20134;-74
2023/12/04 00:59:08;;;;;;;22.30;11.70;;;1.40;99.90;;;;;;5036636;28;20045;-75
2023/12/04 01:01:35;;;;;;;16.27;8.80;;;1.50;99.90;;;;;;5020940;28;20397;-74
2023/12/04 01:04:01;;;;;;;19.90;11.65;;;1.50;99.90;;;;;;5051994;28;20055;-75
2023/12/04 01:06:27;;;;;;;17.15;10.18;;;1.40;99.90;;;;;;5052545;28;20124;-75
2023/12/04 01:08:54;;;;;;;19.65;10.60;;;1.50;99.90;;;;;;5034527;28;20037;-75
2023/12/04 01:11:19;;;;;;;13.95;7.13;;;1.50;99.90;;;;;;5034701;28;20032;-75
2023/12/04 01:13:45;;;;;;;16.95;9.63;;;1.50;99.90;;;;;;5035635;28;20045;-75
2023/12/04 01:16:11;;;;;;;21.13;11.27;;;1.60;99.90;;;;;;5051377;28;20504;-75
2023/12/04 01:18:37;;;;;;;18.48;10.45;;;1.50;99.90;;;;;;5049001;28;20037;-74
2023/12/04 01:21:03;;;;;;;14.10;7.47;;;1.40;99.90;;;;;;5051826;28;20099;-74
2023/12/04 01:23:29;;;;;;;15.40;8.65;;;1.50;99.90;;;;;;5033779;28;20046;-74
2023/12/04 01:25:54;;;;;;;17.15;7.80;;;1.50;99.90;;;;;;5032111;28;20049;-75
2023/12/04 01:28:20;;;;;;;12.50;6.57;;;1.50;99.90;;;;;;5015885;28;20041;-75
2023/12/04 01:30:46;;;;;;;17.77;10.57;;;1.60;99.90;;;;;;5051517;28;20539;-74
2023/12/04 01:33:11;;;;;;;17.55;8.88;;;1.50;99.90;;;;;;5050764;28;20378;-74
2023/12/04 01:35:37;;;;;;;21.40;11.50;;;1.50;99.90;;;;;;5047164;28;20029;-75
2023/12/04 01:38:02;;;;;;;19.05;11.02;;;1.40;99.90;;;;;;5015627;28;20095;-74
2023/12/04 01:40:28;;;;;;;17.13;9.70;;;1.40;99.90;;;;;;5015375;28;20469;-74
2023/12/04 01:42:54;;;;;;;19.38;9.75;;;1.50;99.90;;;;;;5022016;28;20041;-75
2023/12/04 01:45:19;;;;;;;20.20;10.80;;;1.50;99.90;;;;;;5068432;28;20044;-75
2023/12/04 01:47:46;;;;;;;18.05;10.55;;;1.40;99.90;;;;;;5051795;28;20513;-75
2023/12/04 01:50:13;;;;;;;20.02;10.90;;;1.50;99.90;;;;;;5026276;28;20048;-75
2023/12/04 01:52:40;;;;;;;18.55;10.63;;;1.50;99.90;;;;;;5034177;28;20041;-75
2023/12/04 01:55:08;;;;;;;19.45;10.93;;;1.30;99.90;;;;;;5050958;28;20037;-74
2023/12/04 01:57:34;;;;;;;13.57;8.00;;;1.40;99.90;;;;;;5051691;28;20048;-74
2023/12/04 02:00:00;;;;;;;20.15;11.43;;;1.40;99.90;;;;;;5040253;28;20065;-74
2023/12/04 02:02:28;;;;;;;19.27;10.57;;;1.40;99.90;;;;;;5015600;28;20049;-74
2023/12/04 02:04:59;;;;;;;18.33;9.75;;;1.40;99.90;;;;;;5064556;28;20048;-74
2023/12/04 02:07:25;;;;;;;13.38;8.15;;;1.40;99.90;;;;;;5068334;28;20516;-74
2023/12/04 02:09:50;;;;;;;21.70;10.82;;;1.50;99.90;;;;;;5067458;28;20048;-74
2023/12/04 02:12:17;;;;;;;18.52;11.55;;;1.40;99.90;;;;;;5051436;28;20041;-74
2023/12/04 02:14:43;;;;;;;12.65;5.53;;;1.40;99.90;;;;;;5047650;28;20051;-74
2023/12/04 02:17:09;;;;;;;18.20;8.50;;;1.50;99.90;;;;;;5053357;28;20119;-74
2023/12/04 02:19:36;;;;;;;21.65;11.70;;;1.40;99.90;;;;;;5044630;28;20052;-74
2023/12/04 02:22:01;;;;;;;20.60;10.82;;;1.30;99.90;;;;;;5052467;28;20042;-73
2023/12/04 02:24:27;;;;;;;10.80;5.50;;;1.40;99.90;;;;;;5025492;28;20603;-73
2023/12/04 02:26:59;;;;;;;19.88;11.60;;;1.50;99.90;;;;;;5072208;28;20041;-74
2023/12/04 02:29:36;;;;;;;9.65;5.30;;;1.40;99.90;;;;;;5037986;28;20563;-74
2023/12/04 02:32:05;;;;;;;12.70;6.47;;;1.40;99.90;;;;;;5053166;28;20124;-73
2023/12/04 02:34:33;;;;;;;17.25;9.15;;;1.60;99.90;;;;;;5019455;28;20033;-74
2023/12/04 02:37:00;;;;;;;20.27;10.73;;;1.50;99.90;;;;;;5052101;28;20438;-74
2023/12/04 02:39:27;;;;;;;20.02;10.63;;;1.40;99.90;;;;;;5060847;28;20041;-73
2023/12/04 02:41:52;;;;;;;16.50;8.63;;;1.40;99.90;;;;;;5038559;28;20080;-74
2023/12/04 02:44:18;;;;;;;18.73;10.10;;;1.50;99.90;;;;;;5037777;28;20455;-73
2023/12/04 02:46:44;;;;;;;14.27;7.28;;;1.40;99.90;;;;;;5035091;28;20398;-74
2023/12/04 02:49:09;;;;;;;20.30;11.15;;;1.50;99.90;;;;;;5043548;28;20560;-73
2023/12/04 02:51:35;;;;;;;12.15;6.75;;;1.50;99.90;;;;;;5029047;28;20044;-73
2023/12/04 02:54:01;;;;;;;17.17;9.32;;;1.60;99.90;;;;;;5054827;28;20036;-74
2023/12/04 02:56:26;;;;;;;14.95;8.25;;;1.60;99.90;;;;;;5039870;28;20116;-74
2023/12/04 02:58:52;;;;;;;15.60;8.20;;;1.60;99.90;;;;;;5018453;28;20132;-74
2023/12/04 03:01:17;;;;;;;19.88;9.77;;;1.60;99.90;;;;;;5034814;28;20045;-73
2023/12/04 03:03:43;;;;;;;18.73;9.73;;;1.60;99.90;;;;;;5052304;28;20106;-74
2023/12/04 03:06:09;;;;;;;18.92;11.07;;;1.40;99.90;;;;;;5036197;28;20487;-74
2023/12/04 03:08:34;;;;;;;17.17;9.13;;;1.50;99.90;;;;;;5036336;28;20071;-73
2023/12/04 03:11:03;;;;;;;19.73;11.00;;;1.50;99.90;;;;;;5054020;28;20397;-73
2023/12/04 03:13:29;;;;;;;18.95;9.63;;;1.40;99.90;;;;;;5037920;28;20549;-74
2023/12/04 03:15:54;;;;;;;20.33;11.15;;;1.60;99.90;;;;;;5036768;28;20128;-74
2023/12/04 03:18:20;;;;;;;13.73;7.30;;;1.50;99.90;;;;;;5037643;28;20421;-74
2023/12/04 03:20:45;;;;;;;14.93;7.05;;;1.50;99.90;;;;;;5054180;28;20032;-73
2023/12/04 03:23:11;;;;;;;15.35;7.50;;;1.50;99.90;;;;;;5037812;28;20037;-73
2023/12/04 03:25:37;;;;;;;19.02;11.75;;;1.50;99.90;;;;;;5054319;28;20497;-73
2023/12/04 03:28:02;;;;;;;20.42;10.10;;;1.50;99.90;;;;;;5034408;28;20034;-74
2023/12/04 03:30:28;;;;;;;16.65;8.93;;;1.50;99.90;;;;;;5034321;28;20037;-73
2023/12/04 03:32:54;;;;;;;19.98;10.00;;;1.60;99.90;;;;;;5054280;28;20130;-74
2023/12/04 03:35:19;;;;;;;18.13;10.23;;;1.40;99.90;;;;;;5054150;28;20047;-74
2023/12/04 03:37:45;;;;;;;21.40;11.13;;;1.40;99.90;;;;;;5052919;28;20045;-73
2023/12/04 03:40:11;;;;;;;14.70;7.45;;;1.50;99.90;;;;;;5019917;28;20402;-74
2023/12/04 03:42:36;;;;;;;18.27;9.02;;;1.50;99.90;;;;;;5034082;28;20038;-73
2023/12/04 03:45:03;;;;;;;17.88;9.02;;;1.50;99.90;;;;;;5031529;28;20063;-73
2023/12/04 03:47:28;;;;;;;16.88;8.82;;;1.60;99.90;;;;;;5046170;28;20033;-73
2023/12/04 03:49:54;;;;;;;20.55;11.57;;;1.60;99.90;;;;;;5041607;28;20102;-74
2023/12/04 03:52:19;;;;;;;19.77;10.77;;;1.60;99.90;;;;;;5054782;28;20091;-73
2023/12/04 03:54:45;;;;;;;16.50;9.50;;;1.60;99.90;;;;;;5053074;28;20087;-73
2023/12/04 03:57:11;;;;;;;16.92;8.45;;;1.50;99.90;;;;;;5068955;28;20576;-73
2023/12/04 03:59:36;;;;;;;17.42;8.52;;;1.60;99.90;;;;;;5042733;28;20387;-74
2023/12/04 04:02:02;;;;;;;20.90;11.23;;;1.50;99.90;;;;;;5033727;28;20494;-73
2023/12/04 04:04:27;;;;;;;22.95;11.18;;;1.60;99.90;;;;;;5026155;28;20041;-74
2023/12/04 04:06:53;;;;;;;16.08;8.98;;;1.50;99.90;;;;;;5053658;28;20036;-73
2023/12/04 04:09:20;;;;;;;19.88;9.75;;;1.60;99.90;;;;;;5025467;28;20149;-73
2023/12/04 04:11:45;;;;;;;20.08;11.15;;;1.60;99.90;;;;;;5033559;28;20081;-73
2023/12/04 04:14:11;;;;;;;20.10;11.15;;;1.50;99.90;;;;;;5040287;28;20037;-73
2023/12/04 04:16:37;;;;;;;14.52;7.80;;;1.50;99.90;;;;;;5036721;28;20052;-73
2023/12/04 04:19:02;;;;;;;14.88;7.85;;;1.60;99.90;;;;;;5046488;28;20394;-73
2023/12/04 04:21:28;;;;;;;10.55;4.68;;;1.50;99.90;;;;;;5033330;28;20033;-73
2023/12/04 04:23:53;;;;;;;19.92;10.32;;;1.60;99.90;;;;;;5041452;28;20040;-73
2023/12/04 04:26:19;;;;;;;15.60;8.25;;;1.50;99.90;;;;;;5036606;28;20037;-73
2023/12/04 04:28:45;;;;;;;18.90;10.18;;;1.60;99.90;;;;;;5067894;28;20099;-73
2023/12/04 04:31:10;;;;;;;20.02;10.90;;;1.60;99.90;;;;;;5030703;28;20036;-73
2023/12/04 04:33:36;;;;;;;13.45;7.88;;;1.60;99.90;;;;;;5050435;28;20508;-73
2023/12/04 04:36:02;;;;;;;20.17;10.68;;;1.70;99.90;;;;;;5021847;28;20037;-73
2023/12/04 04:38:28;;;;;;;11.65;6.70;;;1.60;99.90;;;;;;5032389;28;20633;-73
2023/12/04 04:40:53;;;;;;;17.10;9.23;;;1.60;99.90;;;;;;5033365;28;20124;-73
2023/12/04 04:43:20;;;;;;;15.77;8.13;;;1.60;99.90;;;;;;5016496;28;20449;-73
2023/12/04 04:45:45;;;;;;;15.77;8.25;;;1.60;99.90;;;;;;5049447;28;20091;-73
2023/12/04 04:48:11;;;;;;;20.77;11.13;;;1.60;99.90;;;;;;5049408;28;20041;-73
2023/12/04 04:50:36;;;;;;;15.10;7.07;;;1.60;99.90;;;;;;5034985;28;20053;-73
2023/12/04 04:53:02;;;;;;;19.15;10.77;;;1.50;99.90;;;;;;5036062;28;20500;-73
2023/12/04 04:55:28;;;;;;;18.27;9.88;;;1.50;99.90;;;;;;5052668;28;20068;-73
2023/12/04 04:57:53;;;;;;;11.48;6.07;;;1.60;99.90;;;;;;5052483;28;20037;-73
2023/12/04 05:00:19;;;;;;;13.75;7.30;;;1.60;99.90;;;;;;5044470;28;20116;-73
2023/12/04 05:02:45;;;;;;;20.10;10.35;;;1.70;99.90;;;;;;5035933;28;20579;-73
2023/12/04 05:05:11;;;;;;;11.75;5.82;;;1.60;99.90;;;;;;5035851;28;20041;-73
2023/12/04 05:07:37;;;;;;;15.30;7.63;;;1.60;99.90;;;;;;5052382;28;20052;-73
2023/12/04 05:10:04;;;;;;;19.10;9.60;;;1.60;99.90;;;;;;5050850;28;20041;-73
2023/12/04 05:12:29;;;;;;;15.40;8.15;;;1.60;99.90;;;;;;5031044;28;20561;-73
2023/12/04 05:14:55;;;;;;;19.02;8.77;;;1.60;99.90;;;;;;5023449;28;20075;-73
2023/12/04 05:17:21;;;;;;;18.88;9.73;;;1.60;99.90;;;;;;5051547;28;20040;-73
2023/12/04 05:19:46;;;;;;;19.38;10.05;;;1.50;99.90;;;;;;5034729;28;20083;-73
2023/12/04 05:22:12;;;;;;;19.52;9.57;;;1.50;99.90;;;;;;5021763;28;20045;-73
2023/12/04 05:24:37;;;;;;;19.48;10.15;;;1.60;99.90;;;;;;5057129;28;20051;-73
2023/12/04 05:27:03;;;;;;;19.30;10.00;;;1.60;99.90;;;;;;5052910;28;20045;-73
2023/12/04 05:29:29;;;;;;;19.17;9.15;;;1.50;99.90;;;;;;5021648;28;20041;-73
2023/12/04 05:31:57;;;;;;;15.70;7.50;;;1.60;99.90;;;;;;5050679;28;20041;-73
2023/12/04 05:34:23;;;;;;;19.35;10.32;;;1.60;99.90;;;;;;5038447;28;20124;-73
2023/12/04 05:36:48;;;;;;;20.10;10.82;;;1.60;99.90;;;;;;5043096;28;20079;-73
2023/12/04 05:39:14;;;;;;;13.38;7.63;;;1.50;99.90;;;;;;5050692;28;20446;-73
2023/12/04 05:41:39;;;;;;;18.15;9.73;;;1.50;99.90;;;;;;5050738;28;20068;-73
2023/12/04 05:44:05;;;;;;;18.92;10.43;;;1.70;99.90;;;;;;5068820;28;20041;-73
2023/12/04 05:46:32;;;;;;;19.95;9.70;;;1.60;99.90;;;;;;5033055;28;20566;-73
2023/12/04 05:48:58;;;;;;;15.35;8.02;;;1.50;99.90;;;;;;5051618;28;20052;-73
2023/12/04 05:51:23;;;;;;;18.38;10.02;;;1.70;99.90;;;;;;5054646;28;20490;-73
2023/12/04 05:53:49;;;;;;;19.00;9.77;;;1.70;99.90;;;;;;5044076;28;20036;-73
2023/12/04 05:56:14;;;;;;;19.85;10.48;;;1.60;99.90;;;;;;5028914;28;20661;-73
2023/12/04 05:58:40;;;;;;;19.35;10.73;;;1.60;99.90;;;;;;5010647;28;20798;-73
2023/12/04 06:01:06;;;;;;;18.23;10.00;;;1.50;99.90;;;;;;5049581;28;20044;-73
2023/12/04 06:03:32;;;;;;;15.30;7.38;;;1.50;99.90;;;;;;5046567;28;20108;-73
2023/12/04 06:05:58;;;;;;;19.33;10.23;;;1.50;99.90;;;;;;5034584;28;20175;-73
2023/12/04 06:08:24;;;;;;;20.25;10.07;;;1.60;99.90;;;;;;5012115;28;20110;-73
2023/12/04 06:10:50;;;;;;;17.60;10.27;;;1.50;99.90;;;;;;5014128;28;20068;-73
2023/12/04 06:13:15;;;;;;;19.95;9.85;;;1.50;99.90;;;;;;5016087;28;20485;-73
2023/12/04 06:15:41;;;;;;;20.13;10.10;;;1.50;99.90;;;;;;5020391;28;20115;-73
2023/12/04 06:18:07;;;;;;;17.80;9.43;;;1.50;99.90;;;;;;5029890;28;20044;-73
2023/12/04 06:20:32;;;;;;;19.52;9.38;;;1.40;99.90;;;;;;5030388;28;20743;-73
2023/12/04 06:22:59;;;;;;;16.85;9.75;;;1.50;99.90;;;;;;5044188;28;20033;-73
2023/12/04 06:25:25;;;;;;;17.85;10.02;;;1.50;99.90;;;;;;5050609;28;20132;-73
2023/12/04 06:27:51;;;;;;;17.70;10.32;;;1.50;99.90;;;;;;5051638;28;20071;-73
2023/12/04 06:30:17;;;;;;;18.33;9.95;;;1.50;99.90;;;;;;5033663;28;20489;-73
2023/12/04 06:32:43;;;;;;;16.92;8.95;;;1.50;99.90;;;;;;5051284;28;20073;-73
2023/12/04 06:35:10;;;;;;;18.42;8.82;;;1.50;99.90;;;;;;5050140;28;20091;-73
2023/12/04 06:37:38;;;;;;;18.13;9.45;;;1.60;99.90;;;;;;5068263;28;20051;-74
2023/12/04 06:40:06;;;;;;;17.73;9.07;;;1.60;99.90;;;;;;5045609;28;20497;-73
2023/12/04 06:42:31;;;;;;;18.20;9.32;;;1.60;99.90;;;;;;5051317;28;20041;-74
2023/12/04 06:44:57;;;;;;;17.48;9.23;;;1.60;99.90;;;;;;5050521;28;20047;-73
2023/12/04 06:47:23;;;;;;;17.20;8.85;;;1.60;99.90;;;;;;5051256;28;20072;-73
2023/12/04 06:49:49;;;;;;;17.98;10.05;;;1.60;99.90;;;;;;5033891;28;20041;-73
2023/12/04 06:52:14;;;;;;;18.13;9.77;;;1.60;99.90;;;;;;5034845;28;20578;-74
2023/12/04 06:54:40;;;;;;;18.42;10.00;;;1.60;99.90;;;;;;5062719;28;20512;-73
2023/12/04 06:57:06;;;;;;;17.55;9.77;;;1.60;99.90;;;;;;5033578;28;20029;-73
2023/12/04 06:59:32;;;;;;;17.70;10.13;;;1.50;99.90;;;;;;5022461;28;20053;-73
2023/12/04 07:01:57;;;;;;;18.27;10.02;;;1.50;99.90;;;;;;5038014;28;20042;-73
2023/12/04 07:04:23;;;;;;;16.65;8.73;;;1.50;99.90;;;;;;5035136;28;20065;-74
2023/12/04 07:06:49;;;;;;;16.75;9.43;;;1.50;99.90;;;;;;5048236;28;20124;-74
2023/12/04 07:09:16;;;;;;;17.20;10.18;;;1.50;99.90;;;;;;5030288;28;20052;-73
2023/12/04 07:11:42;;;;;;;18.98;9.38;;;1.40;99.90;;;;;;5049024;28;20445;-73
2023/12/04 07:14:09;;;;;;;15.25;7.65;;;1.40;99.90;;;;;;5034267;28;20072;-74
2023/12/04 07:16:42;;;;;;;16.20;9.30;;;1.40;99.90;;;;;;5052178;28;20044;-73
2023/12/04 07:19:09;;;;;;;17.02;9.13;;;1.40;99.90;;;;;;5053590;28;20041;-74
2023/12/04 07:21:36;;;;;;;17.10;9.57;;;1.40;99.90;;;;;;5053811;28;20041;-73
2023/12/04 07:24:01;;;;;;;19.17;10.10;;;1.50;99.90;;;;;;5040593;28;20037;-74
2023/12/04 07:26:27;;;;;;;15.93;7.82;;;1.40;99.90;;;;;;5017930;28;20064;-74
2023/12/04 07:28:53;;;;;;;14.93;8.25;;;1.50;99.90;;;;;;5030242;28;20075;-74
2023/12/04 07:31:19;;;;;;;17.33;8.88;;;1.50;99.90;;;;;;5035628;28;20124;-73
2023/12/04 07:33:44;;;;;;;17.83;9.18;;;1.50;99.90;;;;;;5050407;28;20475;-74
2023/12/04 07:36:10;;;;;;;13.77;7.07;;;1.40;99.90;;;;;;5052913;28;20041;-73
2023/12/04 07:38:36;;;;;;;18.33;8.80;;;1.60;99.90;;;;;;5068141;28;20036;-74
2023/12/04 07:41:02;;;;;;;17.55;8.68;;;1.60;99.90;;;;;;5036920;28;20037;-74
2023/12/04 07:43:27;;;;;;;15.73;8.57;;;1.50;99.90;;;;;;5027925;28;20052;-74
2023/12/04 07:45:56;;;;;;;16.20;8.18;;;1.50;99.90;;;;;;5030433;28;20041;-74
2023/12/04 07:48:21;;;;;;;16.33;8.45;;;1.40;99.90;;;;;;5025382;28;20052;-74
2023/12/04 07:50:47;;;;;;;16.40;8.70;;;1.40;99.90;;;;;;5040248;28;20045;-74
2023/12/04 07:53:13;;;;;;;11.10;5.80;;;1.40;99.90;;;;;;5035504;28;20466;-74
2023/12/04 07:55:39;;;;;;;15.65;6.88;;;1.50;99.90;;;;;;5035675;28;20572;-74
2023/12/04 07:58:05;;;;;;;16.23;8.25;;;1.60;99.90;;;;;;5040995;28;20068;-74
2023/12/04 08:00:30;;;;;;;14.73;7.28;;;1.60;99.90;;;;;;5038079;28;20098;-74
2023/12/04 08:02:56;;;;;;;15.40;7.15;;;1.60;99.90;;;;;;5013582;28;20045;-73
2023/12/04 08:05:22;;;;;;;16.23;8.80;;;1.70;99.90;;;;;;5028580;28;20044;-74
2023/12/04 08:07:48;;;;;;;15.68;8.20;;;1.60;99.90;;;;;;5048095;28;20040;-74
2023/12/04 08:10:14;;;;;;;11.10;5.70;;;1.60;99.90;;;;;;5030646;28;20037;-75
2023/12/04 08:12:39;;;;;;;14.63;8.32;;;1.60;99.90;;;;;;5032422;28;20374;-75
2023/12/04 08:15:06;;;;;;;16.30;8.52;;;1.60;99.90;;;;;;5026230;28;20067;-75
2023/12/04 08:17:31;;;;;;;16.13;7.65;;;1.60;99.90;;;;;;5030897;28;20044;-74
2023/12/04 08:19:57;;;;;;;15.82;7.97;;;1.50;99.90;;;;;;5060671;28;20049;-75
2023/12/04 08:22:23;;;;;;;14.60;7.10;;;1.50;99.90;;;;;;5023504;28;20040;-74
2023/12/04 08:24:48;;;;;;;13.93;6.72;;;1.60;99.90;;;;;;5039066;28;20556;-74
2023/12/04 08:27:14;;;;;;;15.00;8.38;;;1.60;99.90;;;;;;5049003;28;20616;-75
2023/12/04 08:29:40;;;;;;;13.23;6.88;;;1.60;99.90;;;;;;5010516;28;20132;-75
2023/12/04 08:32:06;;;;;;;15.73;8.05;;;1.50;99.90;;;;;;5026923;28;20140;-75
2023/12/04 08:34:32;;;;;;;15.13;8.75;;;1.60;99.90;;;;;;5035183;28;20120;-75
2023/12/04 08:36:57;;;;;;;15.13;8.43;;;1.50;99.90;;;;;;5034983;28;20031;-74
2023/12/04 08:39:23;;;;;;;13.05;6.88;;;1.60;99.90;;;;;;5015004;28;20040;-75
2023/12/04 08:41:49;;;;;;;14.55;7.30;;;1.60;99.90;;;;;;5019252;28;20037;-75
2023/12/04 08:44:14;;;;;;;15.65;7.75;;;1.60;99.90;;;;;;5031172;28;20045;-75
2023/12/04 08:46:42;;;;;;;16.42;8.20;;;1.60;99.90;;;;;;5049519;28;20045;-75
2023/12/04 08:49:07;;;;;;;15.82;7.20;;;1.60;99.90;;;;;;5053529;28;20037;-75
2023/12/04 08:51:33;;;;;;;15.13;6.75;;;1.60;99.90;;;;;;5049651;28;20501;-75
2023/12/04 08:53:58;;;;;;;14.38;7.70;;;1.60;99.90;;;;;;5031700;28;20091;-74
2023/12/04 08:56:24;;;;;;;14.43;8.00;;;1.70;99.90;;;;;;5032489;28;20052;-75
2023/12/04 08:58:52;;;;;;;14.18;7.43;;;1.60;99.90;;;;;;5066587;28;20127;-75
2023/12/04 09:01:18;;;;;;;10.25;5.20;;;1.60;99.90;;;;;;5033023;28;20485;-75
2023/12/04 09:03:44;;;;;;;14.90;7.45;;;1.70;99.90;;;;;;5045317;28;20129;-75
2023/12/04 09:06:09;;;;;;;12.77;6.50;;;1.70;99.90;;;;;;5020456;28;20025;-75
2023/12/04 09:08:35;;;;;;;14.32;7.30;;;1.70;99.90;;;;;;5060498;28;20057;-75
2023/12/04 09:11:01;;;;;;;10.15;5.22;;;1.70;99.90;;;;;;5068905;28;20512;-75
2023/12/04 09:13:26;;;;;;;14.43;6.40;;;1.70;99.90;;;;;;5046461;28;20053;-75
2023/12/04 09:15:52;;;;;;;14.43;7.85;;;1.70;99.90;;;;;;5047835;28;20482;-75
2023/12/04 09:18:18;;;;;;;13.73;6.68;;;1.70;99.90;;;;;;5032280;28;20087;-75
2023/12/04 09:20:44;;;;;;;13.27;6.85;;;1.70;99.90;;;;;;5031808;28;20069;-75
2023/12/04 09:23:09;;;;;;;15.63;6.97;;;1.70;99.90;;;;;;5047610;28;20084;-75
2023/12/04 09:25:35;;;;;;;13.10;6.63;;;1.70;99.90;;;;;;5049824;28;20044;-75
2023/12/04 09:28:01;;;;;;;13.38;6.90;;;1.70;99.90;;;;;;5043823;28;20087;-75
2023/12/04 09:30:26;;;;;;;13.98;7.47;;;1.70;99.90;;;;;;5048400;28;20482;-75
2023/12/04 09:32:52;;;;;;;12.85;6.20;;;1.80;99.90;;;;;;5058510;28;20033;-75
2023/12/04 09:35:18;;;;;;;13.90;7.05;;;1.80;99.90;;;;;;5018157;28;20037;-75
2023/12/04 09:37:45;;;;;;;12.38;5.75;;;1.80;99.90;;;;;;5044695;28;20033;-75
2023/12/04 09:40:11;;;;;;;13.48;7.50;;;1.80;99.90;;;;;;5028304;28;20087;-75
2023/12/04 09:42:39;;;;;;;11.48;5.47;;;1.80;99.90;;;;;;5034690;28;20044;-76
2023/12/04 09:45:07;;;;;;;13.05;6.60;;;1.80;99.90;;;;;;5031603;28;20052;-75
2023/12/04 09:47:34;;;;;;;13.32;7.13;;;1.80;99.90;;;;;;5051076;28;20167;-75
2023/12/04 09:50:00;;;;;;;12.30;6.80;;;1.80;99.90;;;;;;5050934;28;20044;-75
2023/12/04 09:52:27;;;;;;;13.50;6.65;;;1.80;99.90;;;;;;5034403;28;20060;-76
2023/12/04 09:54:53;;;;;;;12.05;5.93;;;1.80;99.90;;;;;;5034092;28;20083;-75
2023/12/04 09:57:18;;;;;;;12.57;6.20;;;1.80;99.90;;;;;;5035195;28;20037;-76
2023/12/04 09:59:45;;;;;;;12.50;6.70;;;1.80;99.90;;;;;;5031308;28;20053;-75
2023/12/04 10:02:11;;;;;;;12.90;6.43;;;1.80;99.90;;;;;;5026280;28;20084;-76
2023/12/04 10:04:37;;;;;;;12.90;7.22;;;1.80;99.90;;;;;;5026085;28;20045;-76
2023/12/04 10:07:04;;;;;;;12.40;6.72;;;1.90;99.90;;;;;;5033971;28;20040;-76
2023/12/04 10:09:30;;;;;;;11.40;5.95;;;1.80;99.90;;;;;;5038377;28;20044;-76
2023/12/04 10:11:56;;;;;;;12.40;5.00;;;1.90;99.90;;;;;;5051157;28;20043;-76
2023/12/04 10:14:23;;;;;;;11.57;6.47;;;1.90;99.90;;;;;;5050948;28;20083;-76
2023/12/04 10:16:49;;;;;;;13.93;6.63;;;2.00;99.90;;;;;;5050451;28;20430;-77
2023/12/04 10:19:25;;;;;;;10.57;5.85;;;2.00;99.90;;;;;;5029397;28;20033;-76
2023/12/04 10:21:51;;;;;;;12.68;5.93;;;2.00;99.90;;;;;;5049579;28;20086;-77
2023/12/04 10:24:32;;;;;;;13.10;6.13;;;2.00;99.90;;;;;;5034444;28;20037;-77
2023/12/04 10:26:58;;;;;;;12.55;6.40;;;2.00;99.90;;;;;;5042477;28;20041;-77
2023/12/04 10:29:26;;;;;;;12.35;6.88;;;2.00;99.90;;;;;;5031636;28;20041;-77
2023/12/04 10:31:54;;;;;;;11.63;6.03;;;2.00;99.90;;;;;;5031497;28;20041;-77
2023/12/04 10:34:21;;;;;;;11.05;5.95;;;2.00;99.90;;;;;;5048231;28;20067;-78
2023/12/04 10:36:47;;;;;;;12.00;5.88;;;2.00;99.90;;;;;;5033904;28;20040;-77
2023/12/04 10:39:13;;;;;;;12.45;6.45;;;2.00;99.90;;;;;;5039516;28;20408;-77
2023/12/04 10:41:39;;;;;;;10.93;5.55;;;2.00;99.90;;;;;;5046325;28;20034;-77
2023/12/04 10:44:04;;;;;;;12.95;6.22;;;1.90;99.90;;;;;;5041884;28;20040;-77
2023/12/04 10:46:31;;;;;;;11.25;5.70;;;2.00;99.90;;;;;;5054030;28;20119;-77
2023/12/04 10:48:58;;;;;;;11.43;5.57;;;2.00;99.90;;;;;;5038526;28;20044;-77
2023/12/04 10:51:25;;;;;;;13.35;6.65;;;2.10;99.90;;;;;;5037228;28;20056;-78
2023/12/04 10:53:51;;;;;;;13.00;6.35;;;2.00;99.90;;;;;;5052064;28;20095;-77
2023/12/04 10:56:29;;;;;;;11.85;5.60;;;2.00;99.90;;;;;;5037080;28;20060;-77
2023/12/04 10:58:57;;;;;;;12.27;5.88;;;2.00;99.90;;;;;;5070330;28;20053;-77
2023/12/04 11:01:24;;;;;;;13.88;6.07;;;2.00;99.90;;;;;;5049097;28;20045;-77
2023/12/04 11:03:55;;;;;;;11.95;5.93;;;2.00;99.90;;;;;;5032171;28;20052;-77
2023/12/04 11:06:23;;;;;;;11.82;5.38;;;2.00;99.90;;;;;;5051438;28;20033;-78
2023/12/04 11:08:52;;;;;;;11.65;5.75;;;2.00;99.90;;;;;;5028288;28;20040;-77
2023/12/04 11:11:31;;;;;;;14.32;5.53;;;2.10;99.90;;;;;;5025951;28;20137;-77
2023/12/04 11:14:01;;;;;;;12.15;6.57;;;2.10;99.90;;;;;;5032617;28;20037;-77
2023/12/04 11:16:33;;;;;;;10.23;4.75;;;2.00;99.90;;;;;;5036546;28;20041;-77
2023/12/04 11:19:30;;;;;;;11.77;5.10;;;2.10;99.90;;;;;;5029613;28;20389;-77
2023/12/04 11:22:00;;;;;;;8.35;4.28;;;2.10;99.90;;;;;;4995755;28;20303;-77
2023/12/04 11:24:26;;;;;;;10.68;4.88;;;2.10;99.90;;;;;;5017839;28;20066;-77
2023/12/04 11:26:53;;;;;;;10.82;5.63;;;2.10;99.90;;;;;;5034069;28;20786;-78
2023/12/04 11:29:19;;;;;;;11.57;5.18;;;2.10;99.90;;;;;;5036261;28;20052;-78
2023/12/04 11:31:46;;;;;;;10.57;6.00;;;2.10;99.90;;;;;;5024350;28;20098;-78
2023/12/04 11:34:12;;;;;;;9.70;4.95;;;2.10;99.90;;;;;;5053454;28;20037;-77
2023/12/04 11:36:38;;;;;;;12.25;5.97;;;2.20;99.90;;;;;;5052626;28;20037;-77
2023/12/04 11:39:10;;;;;;;12.23;6.15;;;2.20;99.90;;;;;;5036840;28;20044;-77
2023/12/04 11:41:36;;;;;;;12.90;5.57;;;2.20;99.90;;;;;;5019983;28;20029;-78
2023/12/04 11:44:03;;;;;;;11.07;5.43;;;2.10;99.90;;;;;;5017145;28;20041;-77
2023/12/04 11:46:31;;;;;;;11.80;6.20;;;2.10;99.90;;;;;;5027146;28;20635;-79
2023/12/04 11:49:28;;;;;;;11.88;5.68;;;2.10;99.90;;;;;;5063637;28;20099;-78
2023/12/04 11:52:04;;;;;;;11.18;6.07;;;2.20;99.90;;;;;;5034367;28;20053;-77
2023/12/04 11:54:56;;;;;;;9.65;4.28;;;2.20;99.90;;;;;;5051130;28;20482;-77
2023/12/04 11:57:25;;;;;;;11.07;4.90;;;2.20;99.90;;;;;;5036137;28;20041;-78
2023/12/04 11:59:52;;;;;;;11.13;5.97;;;2.20;99.90;;;;;;5052883;28;20045;-78
2023/12/04 12:02:18;;;;;;;12.27;6.22;;;2.20;99.90;;;;;;5053099;28;20486;-78
2023/12/04 12:04:45;;;;;;;11.55;6.25;;;2.20;99.90;;;;;;5054131;28;20556;-78
2023/12/04 12:07:11;;;;;;;10.85;5.93;;;2.20;99.90;;;;;;5035260;28;20485;-78
2023/12/04 12:09:37;;;;;;;11.00;5.40;;;2.20;99.90;;;;;;5031602;28;20083;-77
2023/12/04 12:12:04;;;;;;;10.85;5.13;;;2.30;99.90;;;;;;5036704;28;20040;-77
2023/12/04 12:14:30;;;;;;;11.90;5.43;;;2.30;99.90;;;;;;5052857;28;20045;-77
2023/12/04 12:17:00;;;;;;;10.93;6.15;;;2.30;99.90;;;;;;5034925;28;20059;-77
2023/12/04 12:19:25;;;;;;;11.90;5.80;;;2.40;99.90;;;;;;5034916;28;20033;-77
2023/12/04 12:21:51;;;;;;;10.77;5.72;;;2.40;99.90;;;;;;5035654;28;20040;-77
2023/12/04 12:24:18;;;;;;;12.15;5.97;;;2.30;99.90;;;;;;5052083;28;20063;-76
2023/12/04 12:26:44;;;;;;;11.35;6.05;;;2.30;99.90;;;;;;5036631;28;20086;-76
2023/12/04 12:29:11;;;;;;;12.98;5.53;;;2.40;99.90;;;;;;5050382;28;20118;-76
2023/12/04 12:31:36;;;;;;;11.57;5.88;;;2.40;99.90;;;;;;5048711;28;20049;-76
2023/12/04 12:34:02;;;;;;;9.90;4.63;;;2.40;99.90;;;;;;5028814;28;20048;-77
2023/12/04 12:36:29;;;;;;;10.18;5.70;;;2.50;99.90;;;;;;5033066;28;20041;-76
2023/12/04 12:38:54;;;;;;;11.85;5.53;;;2.50;99.90;;;;;;5035279;28;20041;-76